sensor_id;sensor_type;location;lat;lon;timestamp;P1;durP1;ratioP1;P2;durP2;ratioP2
17384;SDS011;8810;48.680;8.894;2022-09-12T00:01:04;8.20;;;5.70;;
17384;SDS011;8810;48.680;8.894;2022-09-12T00:03:33;11.50;;;5.50;;
17384;SDS011;8810;48.680;8.894;2022-09-12T00:06:00;9.07;;;5.90;;
17384;SDS011;8810;48.680;8.894;2022-09-12T00:08:33;7.03;;;5.20;;
17384;SDS011;8810;48.680;8.894;2022-09-12T00:11:03;6.93;;;5.20;;
17384;SDS011;8810;48.680;8.894;2022-09-12T00:13:30;10.97;;;5.90;;
17384;SDS011;8810;48.680;8.894;2022-09-12T00:15:57;8.00;;;5.53;;
17384;SDS011;8810;48.680;8.894;2022-09-12T00:18:24;7.63;;;5.43;;
17384;SDS011;8810;48.680;8.894;2022-09-12T00:20:52;6.87;;;5.43;;
17384;SDS011;8810;48.680;8.894;2022-09-12T00:23:19;14.27;;;5.23;;
17384;SDS011;8810;48.680;8.894;2022-09-12T00:25:46;7.63;;;5.13;;
17384;SDS011;8810;48.680;8.894;2022-09-12T00:28:14;7.93;;;5.53;;
17384;SDS011;8810;48.680;8.894;2022-09-12T00:30:43;6.67;;;5.20;;
17384;SDS011;8810;48.680;8.894;2022-09-12T00:33:11;6.40;;;5.37;;
17384;SDS011;8810;48.680;8.894;2022-09-12T00:35:42;8.30;;;5.57;;
17384;SDS011;8810;48.680;8.894;2022-09-12T00:38:11;7.80;;;5.90;;
17384;SDS011;8810;48.680;8.894;2022-09-12T00:40:38;8.23;;;5.97;;
17384;SDS011;8810;48.680;8.894;2022-09-12T00:43:08;7.77;;;6.33;;
17384;SDS011;8810;48.680;8.894;2022-09-12T00:45:38;8.83;;;6.00;;
17384;SDS011;8810;48.680;8.894;2022-09-12T00:48:07;7.57;;;5.73;;
17384;SDS011;8810;48.680;8.894;2022-09-12T00:50:45;7.23;;;5.57;;
17384;SDS011;8810;48.680;8.894;2022-09-12T00:53:13;11.33;;;5.93;;
17384;SDS011;8810;48.680;8.894;2022-09-12T00:55:40;8.80;;;5.73;;
17384;SDS011;8810;48.680;8.894;2022-09-12T00:58:14;7.33;;;5.50;;
17384;SDS011;8810;48.680;8.894;2022-09-12T01:00:44;9.40;;;5.80;;
17384;SDS011;8810;48.680;8.894;2022-09-12T01:03:12;7.83;;;5.50;;
17384;SDS011;8810;48.680;8.894;2022-09-12T01:05:42;7.90;;;5.90;;
17384;SDS011;8810;48.680;8.894;2022-09-12T01:08:16;7.30;;;5.63;;
17384;SDS011;8810;48.680;8.894;2022-09-12T01:10:43;7.87;;;5.90;;
17384;SDS011;8810;48.680;8.894;2022-09-12T01:13:09;8.03;;;5.67;;
17384;SDS011;8810;48.680;8.894;2022-09-12T01:15:37;7.67;;;5.40;;
17384;SDS011;8810;48.680;8.894;2022-09-12T01:18:08;7.53;;;5.43;;
17384;SDS011;8810;48.680;8.894;2022-09-12T01:21:00;9.70;;;5.43;;
17384;SDS011;8810;48.680;8.894;2022-09-12T01:27:02;8.10;;;5.37;;
17384;SDS011;8810;48.680;8.894;2022-09-12T01:33:02;7.27;;;5.87;;
17384;SDS011;8810;48.680;8.894;2022-09-12T01:35:41;9.30;;;5.33;;
17384;SDS011;8810;48.680;8.894;2022-09-12T01:38:19;7.47;;;4.80;;
17384;SDS011;8810;48.680;8.894;2022-09-12T01:40:54;8.13;;;5.60;;
17384;SDS011;8810;48.680;8.894;2022-09-12T01:43:27;8.07;;;4.97;;
17384;SDS011;8810;48.680;8.894;2022-09-12T01:46:01;9.57;;;5.77;;
17384;SDS011;8810;48.680;8.894;2022-09-12T01:48:34;8.87;;;5.60;;
17384;SDS011;8810;48.680;8.894;2022-09-12T01:51:06;8.13;;;5.53;;
17384;SDS011;8810;48.680;8.894;2022-09-12T01:53:40;8.57;;;5.63;;
17384;SDS011;8810;48.680;8.894;2022-09-12T01:56:10;7.97;;;5.40;;
17384;SDS011;8810;48.680;8.894;2022-09-12T01:58:44;7.33;;;5.43;;
17384;SDS011;8810;48.680;8.894;2022-09-12T02:01:17;7.93;;;5.17;;
17384;SDS011;8810;48.680;8.894;2022-09-12T02:03:48;6.33;;;5.13;;
17384;SDS011;8810;48.680;8.894;2022-09-12T02:06:21;7.90;;;5.07;;
17384;SDS011;8810;48.680;8.894;2022-09-12T02:08:52;7.33;;;5.30;;
17384;SDS011;8810;48.680;8.894;2022-09-12T02:11:23;6.90;;;5.10;;
17384;SDS011;8810;48.680;8.894;2022-09-12T02:13:51;6.70;;;5.00;;
17384;SDS011;8810;48.680;8.894;2022-09-12T02:16:24;7.27;;;5.73;;
17384;SDS011;8810;48.680;8.894;2022-09-12T02:18:57;7.67;;;5.20;;
17384;SDS011;8810;48.680;8.894;2022-09-12T02:21:28;6.83;;;5.03;;
17384;SDS011;8810;48.680;8.894;2022-09-12T02:23:58;6.23;;;5.10;;
17384;SDS011;8810;48.680;8.894;2022-09-12T02:26:31;6.73;;;5.13;;
17384;SDS011;8810;48.680;8.894;2022-09-12T02:29:01;7.50;;;5.53;;
17384;SDS011;8810;48.680;8.894;2022-09-12T02:31:32;6.30;;;5.00;;
17384;SDS011;8810;48.680;8.894;2022-09-12T02:34:09;7.17;;;4.93;;
17384;SDS011;8810;48.680;8.894;2022-09-12T02:36:51;6.47;;;4.70;;
17384;SDS011;8810;48.680;8.894;2022-09-12T02:39:27;6.90;;;4.77;;
17384;SDS011;8810;48.680;8.894;2022-09-12T02:41:55;6.10;;;4.73;;
17384;SDS011;8810;48.680;8.894;2022-09-12T02:44:24;6.13;;;4.67;;
17384;SDS011;8810;48.680;8.894;2022-09-12T02:46:54;6.30;;;4.90;;
17384;SDS011;8810;48.680;8.894;2022-09-12T02:49:24;11.47;;;5.00;;
17384;SDS011;8810;48.680;8.894;2022-09-12T02:51:51;7.53;;;5.40;;
17384;SDS011;8810;48.680;8.894;2022-09-12T02:54:18;8.47;;;4.90;;
17384;SDS011;8810;48.680;8.894;2022-09-12T02:56:46;7.23;;;5.30;;
17384;SDS011;8810;48.680;8.894;2022-09-12T02:59:13;7.03;;;5.10;;
17384;SDS011;8810;48.680;8.894;2022-09-12T03:02:03;5.83;;;4.80;;
17384;SDS011;8810;48.680;8.894;2022-09-12T03:04:46;5.33;;;4.40;;
17384;SDS011;8810;48.680;8.894;2022-09-12T03:07:25;6.13;;;4.80;;
17384;SDS011;8810;48.680;8.894;2022-09-12T03:10:02;10.03;;;5.50;;
17384;SDS011;8810;48.680;8.894;2022-09-12T03:12:44;7.13;;;5.40;;
17384;SDS011;8810;48.680;8.894;2022-09-12T03:15:21;6.17;;;4.70;;
17384;SDS011;8810;48.680;8.894;2022-09-12T03:18:05;6.67;;;4.60;;
17384;SDS011;8810;48.680;8.894;2022-09-12T03:20:43;6.33;;;4.77;;
17384;SDS011;8810;48.680;8.894;2022-09-12T03:23:22;5.90;;;4.53;;
17384;SDS011;8810;48.680;8.894;2022-09-12T03:25:56;6.47;;;4.50;;
17384;SDS011;8810;48.680;8.894;2022-09-12T03:28:26;5.90;;;4.93;;
17384;SDS011;8810;48.680;8.894;2022-09-12T03:30:54;8.40;;;5.03;;
17384;SDS011;8810;48.680;8.894;2022-09-12T03:33:23;7.23;;;5.00;;
17384;SDS011;8810;48.680;8.894;2022-09-12T03:35:51;7.70;;;4.47;;
17384;SDS011;8810;48.680;8.894;2022-09-12T03:38:18;8.07;;;5.13;;
17384;SDS011;8810;48.680;8.894;2022-09-12T03:40:45;6.40;;;4.80;;
17384;SDS011;8810;48.680;8.894;2022-09-12T03:43:12;5.80;;;4.53;;
17384;SDS011;8810;48.680;8.894;2022-09-12T03:45:39;6.77;;;5.30;;
17384;SDS011;8810;48.680;8.894;2022-09-12T03:48:06;7.83;;;4.60;;
17384;SDS011;8810;48.680;8.894;2022-09-12T03:50:34;6.30;;;4.57;;
17384;SDS011;8810;48.680;8.894;2022-09-12T03:53:01;5.83;;;4.73;;
17384;SDS011;8810;48.680;8.894;2022-09-12T03:55:28;7.03;;;5.03;;
17384;SDS011;8810;48.680;8.894;2022-09-12T03:57:56;7.60;;;5.00;;
17384;SDS011;8810;48.680;8.894;2022-09-12T04:00:23;5.70;;;4.77;;
17384;SDS011;8810;48.680;8.894;2022-09-12T04:02:52;5.97;;;4.23;;
17384;SDS011;8810;48.680;8.894;2022-09-12T04:05:20;6.07;;;4.67;;
17384;SDS011;8810;48.680;8.894;2022-09-12T04:07:48;5.90;;;4.57;;
17384;SDS011;8810;48.680;8.894;2022-09-12T04:10:15;6.57;;;4.97;;
17384;SDS011;8810;48.680;8.894;2022-09-12T04:12:42;8.37;;;5.10;;
17384;SDS011;8810;48.680;8.894;2022-09-12T04:15:09;9.23;;;5.37;;
17384;SDS011;8810;48.680;8.894;2022-09-12T04:17:37;6.40;;;5.03;;
17384;SDS011;8810;48.680;8.894;2022-09-12T04:20:04;6.60;;;5.10;;
17384;SDS011;8810;48.680;8.894;2022-09-12T04:22:32;6.13;;;4.60;;
17384;SDS011;8810;48.680;8.894;2022-09-12T04:25:00;6.40;;;4.77;;
17384;SDS011;8810;48.680;8.894;2022-09-12T04:27:27;6.50;;;4.73;;
17384;SDS011;8810;48.680;8.894;2022-09-12T04:29:54;5.83;;;4.20;;
17384;SDS011;8810;48.680;8.894;2022-09-12T04:32:21;7.63;;;4.70;;
17384;SDS011;8810;48.680;8.894;2022-09-12T04:34:48;7.67;;;5.23;;
17384;SDS011;8810;48.680;8.894;2022-09-12T04:37:16;7.87;;;4.97;;
17384;SDS011;8810;48.680;8.894;2022-09-12T04:39:43;6.77;;;4.80;;
17384;SDS011;8810;48.680;8.894;2022-09-12T04:42:14;7.80;;;4.37;;
17384;SDS011;8810;48.680;8.894;2022-09-12T04:44:41;8.80;;;4.80;;
17384;SDS011;8810;48.680;8.894;2022-09-12T04:47:08;8.33;;;4.87;;
17384;SDS011;8810;48.680;8.894;2022-09-12T04:49:35;5.97;;;4.80;;
17384;SDS011;8810;48.680;8.894;2022-09-12T04:52:02;8.20;;;5.00;;
17384;SDS011;8810;48.680;8.894;2022-09-12T04:54:28;6.97;;;5.00;;
17384;SDS011;8810;48.680;8.894;2022-09-12T04:56:55;6.23;;;4.17;;
17384;SDS011;8810;48.680;8.894;2022-09-12T04:59:24;9.90;;;5.10;;
17384;SDS011;8810;48.680;8.894;2022-09-12T05:01:51;8.73;;;5.10;;
17384;SDS011;8810;48.680;8.894;2022-09-12T05:04:18;7.73;;;4.90;;
17384;SDS011;8810;48.680;8.894;2022-09-12T05:06:45;6.30;;;4.77;;
17384;SDS011;8810;48.680;8.894;2022-09-12T05:09:12;9.33;;;5.43;;
17384;SDS011;8810;48.680;8.894;2022-09-12T05:11:40;6.90;;;4.83;;
17384;SDS011;8810;48.680;8.894;2022-09-12T05:14:08;6.40;;;4.60;;
17384;SDS011;8810;48.680;8.894;2022-09-12T05:16:37;6.47;;;4.87;;
17384;SDS011;8810;48.680;8.894;2022-09-12T05:19:05;8.00;;;5.70;;
17384;SDS011;8810;48.680;8.894;2022-09-12T05:21:33;6.83;;;4.80;;
17384;SDS011;8810;48.680;8.894;2022-09-12T05:24:00;5.50;;;4.70;;
17384;SDS011;8810;48.680;8.894;2022-09-12T05:26:27;7.93;;;4.63;;
17384;SDS011;8810;48.680;8.894;2022-09-12T05:28:54;5.60;;;4.50;;
17384;SDS011;8810;48.680;8.894;2022-09-12T05:31:21;6.17;;;4.73;;
17384;SDS011;8810;48.680;8.894;2022-09-12T05:33:51;6.20;;;5.00;;
17384;SDS011;8810;48.680;8.894;2022-09-12T05:36:19;7.47;;;4.67;;
17384;SDS011;8810;48.680;8.894;2022-09-12T05:38:48;5.87;;;4.50;;
17384;SDS011;8810;48.680;8.894;2022-09-12T05:41:15;8.63;;;4.53;;
17384;SDS011;8810;48.680;8.894;2022-09-12T05:43:43;6.90;;;4.90;;
17384;SDS011;8810;48.680;8.894;2022-09-12T05:46:10;6.47;;;4.57;;
17384;SDS011;8810;48.680;8.894;2022-09-12T05:48:39;8.63;;;5.23;;
17384;SDS011;8810;48.680;8.894;2022-09-12T05:51:09;8.77;;;4.90;;
17384;SDS011;8810;48.680;8.894;2022-09-12T05:53:38;6.30;;;4.80;;
17384;SDS011;8810;48.680;8.894;2022-09-12T05:56:07;6.30;;;4.63;;
17384;SDS011;8810;48.680;8.894;2022-09-12T05:58:36;6.63;;;5.07;;
17384;SDS011;8810;48.680;8.894;2022-09-12T06:01:06;6.17;;;4.93;;
17384;SDS011;8810;48.680;8.894;2022-09-12T06:03:35;9.23;;;5.17;;
17384;SDS011;8810;48.680;8.894;2022-09-12T06:06:05;6.90;;;4.63;;
17384;SDS011;8810;48.680;8.894;2022-09-12T06:08:34;9.73;;;5.07;;
17384;SDS011;8810;48.680;8.894;2022-09-12T06:11:01;7.07;;;5.43;;
17384;SDS011;8810;48.680;8.894;2022-09-12T06:13:30;8.13;;;4.73;;
17384;SDS011;8810;48.680;8.894;2022-09-12T06:16:04;8.10;;;5.20;;
17384;SDS011;8810;48.680;8.894;2022-09-12T06:18:32;6.63;;;4.87;;
17384;SDS011;8810;48.680;8.894;2022-09-12T06:21:01;7.70;;;5.60;;
17384;SDS011;8810;48.680;8.894;2022-09-12T06:23:28;11.90;;;5.10;;
17384;SDS011;8810;48.680;8.894;2022-09-12T06:25:57;8.67;;;5.17;;
17384;SDS011;8810;48.680;8.894;2022-09-12T06:28:24;7.00;;;4.87;;
17384;SDS011;8810;48.680;8.894;2022-09-12T06:30:51;9.03;;;5.50;;
17384;SDS011;8810;48.680;8.894;2022-09-12T06:33:18;7.63;;;5.00;;
17384;SDS011;8810;48.680;8.894;2022-09-12T06:35:45;7.97;;;5.37;;
17384;SDS011;8810;48.680;8.894;2022-09-12T06:38:12;8.97;;;5.23;;
17384;SDS011;8810;48.680;8.894;2022-09-12T06:40:40;5.63;;;4.57;;
17384;SDS011;8810;48.680;8.894;2022-09-12T06:43:11;8.03;;;4.87;;
17384;SDS011;8810;48.680;8.894;2022-09-12T06:45:38;8.83;;;5.53;;
17384;SDS011;8810;48.680;8.894;2022-09-12T06:48:05;6.93;;;4.43;;
17384;SDS011;8810;48.680;8.894;2022-09-12T06:50:32;5.63;;;4.73;;
17384;SDS011;8810;48.680;8.894;2022-09-12T06:52:59;5.63;;;4.73;;
17384;SDS011;8810;48.680;8.894;2022-09-12T06:55:26;7.03;;;4.87;;
17384;SDS011;8810;48.680;8.894;2022-09-12T06:57:53;6.47;;;4.73;;
17384;SDS011;8810;48.680;8.894;2022-09-12T07:00:21;5.97;;;4.57;;
17384;SDS011;8810;48.680;8.894;2022-09-12T07:02:52;7.00;;;4.80;;
17384;SDS011;8810;48.680;8.894;2022-09-12T07:05:20;6.07;;;5.03;;
17384;SDS011;8810;48.680;8.894;2022-09-12T07:07:47;5.70;;;4.73;;
17384;SDS011;8810;48.680;8.894;2022-09-12T07:10:14;5.40;;;4.87;;
17384;SDS011;8810;48.680;8.894;2022-09-12T07:12:41;10.97;;;4.83;;
17384;SDS011;8810;48.680;8.894;2022-09-12T07:15:08;6.33;;;4.63;;
17384;SDS011;8810;48.680;8.894;2022-09-12T07:17:37;9.23;;;5.00;;
17384;SDS011;8810;48.680;8.894;2022-09-12T07:20:04;6.53;;;5.00;;
17384;SDS011;8810;48.680;8.894;2022-09-12T07:22:32;6.50;;;5.00;;
17384;SDS011;8810;48.680;8.894;2022-09-12T07:24:58;8.87;;;4.83;;
17384;SDS011;8810;48.680;8.894;2022-09-12T07:27:26;9.70;;;5.10;;
17384;SDS011;8810;48.680;8.894;2022-09-12T07:29:52;9.18;;;5.68;;
17384;SDS011;8810;48.680;8.894;2022-09-12T07:32:20;5.10;;;4.38;;
17384;SDS011;8810;48.680;8.894;2022-09-12T07:34:48;8.32;;;4.50;;
17384;SDS011;8810;48.680;8.894;2022-09-12T07:37:16;7.82;;;4.80;;
17384;SDS011;8810;48.680;8.894;2022-09-12T07:39:43;7.47;;;4.65;;
17384;SDS011;8810;48.680;8.894;2022-09-12T07:42:10;6.68;;;4.55;;
17384;SDS011;8810;48.680;8.894;2022-09-12T07:44:37;6.72;;;4.20;;
17384;SDS011;8810;48.680;8.894;2022-09-12T07:47:04;8.63;;;4.32;;
17384;SDS011;8810;48.680;8.894;2022-09-12T07:49:31;9.20;;;4.97;;
17384;SDS011;8810;48.680;8.894;2022-09-12T07:52:00;6.57;;;4.32;;
17384;SDS011;8810;48.680;8.894;2022-09-12T07:54:27;7.05;;;4.35;;
17384;SDS011;8810;48.680;8.894;2022-09-12T07:56:53;6.07;;;4.50;;
17384;SDS011;8810;48.680;8.894;2022-09-12T07:59:20;8.57;;;4.43;;
17384;SDS011;8810;48.680;8.894;2022-09-12T08:01:47;5.80;;;4.78;;
17384;SDS011;8810;48.680;8.894;2022-09-12T08:04:14;5.03;;;4.18;;
17384;SDS011;8810;48.680;8.894;2022-09-12T08:06:41;5.90;;;3.55;;
17384;SDS011;8810;48.680;8.894;2022-09-12T08:09:09;6.97;;;3.95;;
17384;SDS011;8810;48.680;8.894;2022-09-12T08:11:39;8.20;;;3.55;;
17384;SDS011;8810;48.680;8.894;2022-09-12T08:14:06;3.63;;;3.13;;
17384;SDS011;8810;48.680;8.894;2022-09-12T08:16:33;8.07;;;3.40;;
17384;SDS011;8810;48.680;8.894;2022-09-12T08:19:00;5.68;;;3.38;;
17384;SDS011;8810;48.680;8.894;2022-09-12T08:21:29;5.35;;;3.70;;
17384;SDS011;8810;48.680;8.894;2022-09-12T08:23:58;3.58;;;3.08;;
17384;SDS011;8810;48.680;8.894;2022-09-12T08:26:27;4.82;;;3.50;;
17384;SDS011;8810;48.680;8.894;2022-09-12T08:28:55;4.85;;;3.05;;
17384;SDS011;8810;48.680;8.894;2022-09-12T08:31:22;2.92;;;2.65;;
17384;SDS011;8810;48.680;8.894;2022-09-12T08:33:51;3.45;;;2.97;;
17384;SDS011;8810;48.680;8.894;2022-09-12T08:36:20;4.70;;;2.97;;
17384;SDS011;8810;48.680;8.894;2022-09-12T08:38:49;3.28;;;2.90;;
17384;SDS011;8810;48.680;8.894;2022-09-12T08:41:20;2.75;;;2.40;;
17384;SDS011;8810;48.680;8.894;2022-09-12T08:43:58;2.63;;;2.42;;
17384;SDS011;8810;48.680;8.894;2022-09-12T08:46:36;5.65;;;2.70;;
17384;SDS011;8810;48.680;8.894;2022-09-12T08:49:09;2.63;;;2.30;;
17384;SDS011;8810;48.680;8.894;2022-09-12T08:51:40;2.50;;;2.10;;
17384;SDS011;8810;48.680;8.894;2022-09-12T08:54:19;4.13;;;2.33;;
17384;SDS011;8810;48.680;8.894;2022-09-12T08:56:48;5.25;;;3.00;;
17384;SDS011;8810;48.680;8.894;2022-09-12T08:59:17;2.85;;;2.55;;
17384;SDS011;8810;48.680;8.894;2022-09-12T09:01:44;2.72;;;1.92;;
17384;SDS011;8810;48.680;8.894;2022-09-12T09:04:24;2.40;;;2.10;;
17384;SDS011;8810;48.680;8.894;2022-09-12T09:07:06;2.28;;;1.73;;
17384;SDS011;8810;48.680;8.894;2022-09-12T09:09:48;2.80;;;1.90;;
17384;SDS011;8810;48.680;8.894;2022-09-12T09:12:25;3.22;;;2.00;;
17384;SDS011;8810;48.680;8.894;2022-09-12T09:15:15;4.07;;;1.65;;
17384;SDS011;8810;48.680;8.894;2022-09-12T09:17:51;2.40;;;1.58;;
17384;SDS011;8810;48.680;8.894;2022-09-12T09:20:22;2.15;;;1.73;;
17384;SDS011;8810;48.680;8.894;2022-09-12T09:22:55;3.15;;;1.80;;
17384;SDS011;8810;48.680;8.894;2022-09-12T09:25:28;1.85;;;1.75;;
17384;SDS011;8810;48.680;8.894;2022-09-12T09:28:06;3.15;;;1.75;;
17384;SDS011;8810;48.680;8.894;2022-09-12T09:30:42;2.08;;;1.58;;
17384;SDS011;8810;48.680;8.894;2022-09-12T09:33:14;3.47;;;1.60;;
17384;SDS011;8810;48.680;8.894;2022-09-12T09:35:47;2.38;;;1.83;;
17384;SDS011;8810;48.680;8.894;2022-09-12T09:38:22;2.10;;;1.65;;
17384;SDS011;8810;48.680;8.894;2022-09-12T09:40:57;2.40;;;1.90;;
17384;SDS011;8810;48.680;8.894;2022-09-12T09:43:32;1.90;;;1.48;;
17384;SDS011;8810;48.680;8.894;2022-09-12T09:46:00;2.30;;;1.70;;
17384;SDS011;8810;48.680;8.894;2022-09-12T09:48:27;2.75;;;1.50;;
17384;SDS011;8810;48.680;8.894;2022-09-12T09:50:57;1.75;;;1.40;;
17384;SDS011;8810;48.680;8.894;2022-09-12T09:53:31;1.60;;;1.50;;
17384;SDS011;8810;48.680;8.894;2022-09-12T09:56:02;2.00;;;1.63;;
17384;SDS011;8810;48.680;8.894;2022-09-12T09:58:35;2.50;;;1.70;;
17384;SDS011;8810;48.680;8.894;2022-09-12T10:01:04;1.58;;;1.48;;
17384;SDS011;8810;48.680;8.894;2022-09-12T10:03:37;2.67;;;1.70;;
17384;SDS011;8810;48.680;8.894;2022-09-12T10:06:06;1.50;;;1.40;;
17384;SDS011;8810;48.680;8.894;2022-09-12T10:08:47;2.25;;;1.25;;
17384;SDS011;8810;48.680;8.894;2022-09-12T10:11:16;2.30;;;1.42;;
17384;SDS011;8810;48.680;8.894;2022-09-12T10:13:51;2.45;;;1.10;;
17384;SDS011;8810;48.680;8.894;2022-09-12T10:16:23;1.65;;;1.08;;
17384;SDS011;8810;48.680;8.894;2022-09-12T10:18:52;2.08;;;1.10;;
17384;SDS011;8810;48.680;8.894;2022-09-12T10:21:22;1.42;;;1.33;;
17384;SDS011;8810;48.680;8.894;2022-09-12T10:24:10;1.48;;;1.33;;
17384;SDS011;8810;48.680;8.894;2022-09-12T10:26:48;1.33;;;1.23;;
17384;SDS011;8810;48.680;8.894;2022-09-12T10:29:20;1.60;;;1.23;;
17384;SDS011;8810;48.680;8.894;2022-09-12T10:31:52;1.55;;;1.23;;
17384;SDS011;8810;48.680;8.894;2022-09-12T10:34:22;1.13;;;0.98;;
17384;SDS011;8810;48.680;8.894;2022-09-12T10:37:00;1.20;;;1.10;;
17384;SDS011;8810;48.680;8.894;2022-09-12T10:39:29;2.50;;;1.30;;
17384;SDS011;8810;48.680;8.894;2022-09-12T10:41:58;1.20;;;1.10;;
17384;SDS011;8810;48.680;8.894;2022-09-12T10:44:26;1.02;;;0.95;;
17384;SDS011;8810;48.680;8.894;2022-09-12T10:46:57;1.38;;;0.80;;
17384;SDS011;8810;48.680;8.894;2022-09-12T10:49:26;1.23;;;1.13;;
17384;SDS011;8810;48.680;8.894;2022-09-12T10:51:55;1.58;;;1.00;;
17384;SDS011;8810;48.680;8.894;2022-09-12T10:54:25;0.93;;;0.90;;
17384;SDS011;8810;48.680;8.894;2022-09-12T10:56:56;1.00;;;0.90;;
17384;SDS011;8810;48.680;8.894;2022-09-12T10:59:39;1.02;;;0.93;;
17384;SDS011;8810;48.680;8.894;2022-09-12T11:02:25;1.95;;;1.00;;
17384;SDS011;8810;48.680;8.894;2022-09-12T11:04:56;1.33;;;0.90;;
17384;SDS011;8810;48.680;8.894;2022-09-12T11:07:36;1.95;;;1.10;;
17384;SDS011;8810;48.680;8.894;2022-09-12T11:10:20;1.40;;;0.95;;
17384;SDS011;8810;48.680;8.894;2022-09-12T11:12:57;1.40;;;1.00;;
17384;SDS011;8810;48.680;8.894;2022-09-12T11:15:37;1.10;;;0.90;;
17384;SDS011;8810;48.680;8.894;2022-09-12T11:18:18;1.02;;;0.80;;
17384;SDS011;8810;48.680;8.894;2022-09-12T11:21:08;1.20;;;0.95;;
17384;SDS011;8810;48.680;8.894;2022-09-12T11:26:40;0.60;;;0.60;;
17384;SDS011;8810;48.680;8.894;2022-09-12T11:29:18;0.80;;;0.80;;
17384;SDS011;8810;48.680;8.894;2022-09-12T11:32:00;1.15;;;1.10;;
17384;SDS011;8810;48.680;8.894;2022-09-12T11:34:50;0.70;;;0.70;;
17384;SDS011;8810;48.680;8.894;2022-09-12T11:37:30;0.80;;;0.80;;
17384;SDS011;8810;48.680;8.894;2022-09-12T11:40:15;1.35;;;0.80;;
17384;SDS011;8810;48.680;8.894;2022-09-12T11:42:52;1.23;;;0.60;;
17384;SDS011;8810;48.680;8.894;2022-09-12T11:45:23;0.73;;;0.50;;
17384;SDS011;8810;48.680;8.894;2022-09-12T11:47:55;0.52;;;0.50;;
17384;SDS011;8810;48.680;8.894;2022-09-12T11:50:27;0.60;;;0.60;;
17384;SDS011;8810;48.680;8.894;2022-09-12T11:52:57;0.80;;;0.60;;
17384;SDS011;8810;48.680;8.894;2022-09-12T11:55:30;0.50;;;0.50;;
17384;SDS011;8810;48.680;8.894;2022-09-12T11:58:02;0.82;;;0.70;;
17384;SDS011;8810;48.680;8.894;2022-09-12T12:00:31;0.68;;;0.52;;
17384;SDS011;8810;48.680;8.894;2022-09-12T12:03:02;0.98;;;0.70;;
17384;SDS011;8810;48.680;8.894;2022-09-12T12:05:36;1.25;;;0.60;;
17384;SDS011;8810;48.680;8.894;2022-09-12T12:08:08;1.38;;;0.40;;
17384;SDS011;8810;48.680;8.894;2022-09-12T12:10:37;1.15;;;0.60;;
17384;SDS011;8810;48.680;8.894;2022-09-12T12:13:06;0.90;;;0.60;;
17384;SDS011;8810;48.680;8.894;2022-09-12T12:15:43;0.73;;;0.65;;
17384;SDS011;8810;48.680;8.894;2022-09-12T12:18:14;0.88;;;0.60;;
17384;SDS011;8810;48.680;8.894;2022-09-12T12:20:45;1.75;;;0.70;;
17384;SDS011;8810;48.680;8.894;2022-09-12T12:23:22;1.00;;;0.80;;
17384;SDS011;8810;48.680;8.894;2022-09-12T12:25:55;0.65;;;0.65;;
17384;SDS011;8810;48.680;8.894;2022-09-12T12:31:24;1.00;;;0.70;;
17384;SDS011;8810;48.680;8.894;2022-09-12T12:33:51;1.35;;;0.60;;
17384;SDS011;8810;48.680;8.894;2022-09-12T12:36:39;0.60;;;0.50;;
17384;SDS011;8810;48.680;8.894;2022-09-12T12:45:44;0.98;;;0.57;;
17384;SDS011;8810;48.680;8.894;2022-09-12T12:48:25;0.50;;;0.50;;
17384;SDS011;8810;48.680;8.894;2022-09-12T12:54:01;1.80;;;0.60;;
17384;SDS011;8810;48.680;8.894;2022-09-12T12:56:33;0.82;;;0.63;;
17384;SDS011;8810;48.680;8.894;2022-09-12T12:59:05;0.57;;;0.57;;
17384;SDS011;8810;48.680;8.894;2022-09-12T13:01:43;0.63;;;0.63;;
17384;SDS011;8810;48.680;8.894;2022-09-12T13:04:13;1.15;;;0.30;;
17384;SDS011;8810;48.680;8.894;2022-09-12T13:06:43;0.40;;;0.40;;
17384;SDS011;8810;48.680;8.894;2022-09-12T13:09:19;0.55;;;0.55;;
17384;SDS011;8810;48.680;8.894;2022-09-12T13:11:58;0.43;;;0.43;;
17384;SDS011;8810;48.680;8.894;2022-09-12T13:14:46;0.60;;;0.40;;
17384;SDS011;8810;48.680;8.894;2022-09-12T13:20:13;1.38;;;0.52;;
17384;SDS011;8810;48.680;8.894;2022-09-12T13:22:44;2.42;;;0.57;;
17384;SDS011;8810;48.680;8.894;2022-09-12T13:25:22;1.48;;;0.60;;
17384;SDS011;8810;48.680;8.894;2022-09-12T13:27:55;0.50;;;0.50;;
17384;SDS011;8810;48.680;8.894;2022-09-12T13:30:31;0.88;;;0.50;;
17384;SDS011;8810;48.680;8.894;2022-09-12T13:33:03;0.60;;;0.60;;
17384;SDS011;8810;48.680;8.894;2022-09-12T13:35:42;0.88;;;0.60;;
17384;SDS011;8810;48.680;8.894;2022-09-12T13:38:21;0.65;;;0.50;;
17384;SDS011;8810;48.680;8.894;2022-09-12T13:41:05;0.45;;;0.45;;
17384;SDS011;8810;48.680;8.894;2022-09-12T13:43:43;0.40;;;0.40;;
17384;SDS011;8810;48.680;8.894;2022-09-12T13:46:13;1.00;;;0.57;;
17384;SDS011;8810;48.680;8.894;2022-09-12T13:48:44;0.50;;;0.50;;
17384;SDS011;8810;48.680;8.894;2022-09-12T13:51:18;0.75;;;0.43;;
17384;SDS011;8810;48.680;8.894;2022-09-12T13:53:49;0.98;;;0.50;;
17384;SDS011;8810;48.680;8.894;2022-09-12T13:56:21;0.75;;;0.57;;
17384;SDS011;8810;48.680;8.894;2022-09-12T13:58:51;0.73;;;0.70;;
17384;SDS011;8810;48.680;8.894;2022-09-12T14:01:21;0.70;;;0.70;;
17384;SDS011;8810;48.680;8.894;2022-09-12T14:03:49;1.05;;;0.70;;
17384;SDS011;8810;48.680;8.894;2022-09-12T14:06:35;0.75;;;0.70;;
17384;SDS011;8810;48.680;8.894;2022-09-12T14:09:13;0.60;;;0.60;;
17384;SDS011;8810;48.680;8.894;2022-09-12T14:11:43;2.72;;;0.70;;
17384;SDS011;8810;48.680;8.894;2022-09-12T14:14:17;3.50;;;0.70;;
17384;SDS011;8810;48.680;8.894;2022-09-12T14:16:52;0.50;;;0.50;;
17384;SDS011;8810;48.680;8.894;2022-09-12T14:19:19;0.65;;;0.57;;
17384;SDS011;8810;48.680;8.894;2022-09-12T14:21:50;0.60;;;0.60;;
17384;SDS011;8810;48.680;8.894;2022-09-12T14:24:18;0.60;;;0.60;;
17384;SDS011;8810;48.680;8.894;2022-09-12T14:26:49;1.10;;;0.60;;
17384;SDS011;8810;48.680;8.894;2022-09-12T14:29:18;1.55;;;0.70;;
17384;SDS011;8810;48.680;8.894;2022-09-12T14:31:46;0.75;;;0.60;;
17384;SDS011;8810;48.680;8.894;2022-09-12T14:34:26;3.03;;;0.60;;
17384;SDS011;8810;48.680;8.894;2022-09-12T14:36:54;2.28;;;0.70;;
17384;SDS011;8810;48.680;8.894;2022-09-12T14:39:23;0.90;;;0.73;;
17384;SDS011;8810;48.680;8.894;2022-09-12T14:42:00;0.80;;;0.80;;
17384;SDS011;8810;48.680;8.894;2022-09-12T14:44:30;0.50;;;0.50;;
17384;SDS011;8810;48.680;8.894;2022-09-12T14:47:00;0.65;;;0.65;;
17384;SDS011;8810;48.680;8.894;2022-09-12T14:49:38;2.90;;;0.80;;
17384;SDS011;8810;48.680;8.894;2022-09-12T14:52:06;1.05;;;0.88;;
17384;SDS011;8810;48.680;8.894;2022-09-12T14:54:54;0.82;;;0.70;;
17384;SDS011;8810;48.680;8.894;2022-09-12T14:57:36;1.13;;;0.75;;
17384;SDS011;8810;48.680;8.894;2022-09-12T15:00:10;1.55;;;0.85;;
17384;SDS011;8810;48.680;8.894;2022-09-12T15:02:44;1.08;;;1.00;;
17384;SDS011;8810;48.680;8.894;2022-09-12T15:05:16;1.88;;;0.70;;
17384;SDS011;8810;48.680;8.894;2022-09-12T15:07:58;0.88;;;0.82;;
17384;SDS011;8810;48.680;8.894;2022-09-12T15:10:27;0.80;;;0.80;;
17384;SDS011;8810;48.680;8.894;2022-09-12T15:13:04;0.77;;;0.77;;
17384;SDS011;8810;48.680;8.894;2022-09-12T15:15:40;1.13;;;0.80;;
17384;SDS011;8810;48.680;8.894;2022-09-12T15:18:09;1.15;;;0.90;;
17384;SDS011;8810;48.680;8.894;2022-09-12T15:20:36;1.05;;;0.80;;
17384;SDS011;8810;48.680;8.894;2022-09-12T15:23:05;0.80;;;0.77;;
17384;SDS011;8810;48.680;8.894;2022-09-12T15:25:39;3.58;;;0.90;;
17384;SDS011;8810;48.680;8.894;2022-09-12T15:28:10;0.90;;;0.90;;
17384;SDS011;8810;48.680;8.894;2022-09-12T15:30:42;1.55;;;1.05;;
17384;SDS011;8810;48.680;8.894;2022-09-12T15:33:09;0.80;;;0.80;;
17384;SDS011;8810;48.680;8.894;2022-09-12T15:35:36;1.67;;;0.85;;
17384;SDS011;8810;48.680;8.894;2022-09-12T15:38:04;0.95;;;0.95;;
17384;SDS011;8810;48.680;8.894;2022-09-12T15:40:31;1.42;;;0.85;;
17384;SDS011;8810;48.680;8.894;2022-09-12T15:42:57;2.42;;;0.98;;
17384;SDS011;8810;48.680;8.894;2022-09-12T15:45:26;1.33;;;1.00;;
17384;SDS011;8810;48.680;8.894;2022-09-12T15:47:55;0.80;;;0.80;;
17384;SDS011;8810;48.680;8.894;2022-09-12T15:50:22;1.20;;;1.10;;